GBSZO EGMT-EGMA

Flight info

Callsign GBSZO
Flight time 0h 39m
Altitude 1500
Route DCT BPK DCT BKY DCT
Aircraft C152/L-SFG/C

Departure

Time 2026-04-21 17:45
Airport Thurrock Airfield (EGMT)

Arrival

Time 2026-04-21 18:24
Airport Fowlmere Airfield (EGMA)
Time Latitude Longitude Altitude Speed Heading
2026-04-21 17:34 51.53579 0.36469 29 ft 0 kts 267°
2026-04-21 17:41 51.53581 0.36458 29 ft 5 kts 309°
2026-04-21 17:41 51.53595 0.36448 31 ft 0 kts 13°
2026-04-21 17:41 51.53615 0.36456 29 ft 8 kts 22°
2026-04-21 17:42 51.53654 0.36536 29 ft 11 kts 73°
2026-04-21 17:42 51.53675 0.36657 29 ft 11 kts 72°
2026-04-21 17:42 51.53703 0.36773 31 ft 12 kts 68°
2026-04-21 17:42 51.53734 0.36909 28 ft 13 kts 69°
2026-04-21 17:43 51.53758 0.37010 28 ft 6 kts 68°
2026-04-21 17:43 51.53775 0.37105 29 ft 8 kts 111°
2026-04-21 17:43 51.53785 0.37196 30 ft 9 kts 72°
2026-04-21 17:43 51.53805 0.37274 30 ft 4 kts 48°
2026-04-21 17:44 51.53832 0.37257 30 ft 7 kts 280°
2026-04-21 17:44 51.53805 0.37128 30 ft 27 kts 250°
2026-04-21 17:44 51.53707 0.36553 38 ft 73 kts 249°
2026-04-21 17:44 51.53540 0.35706 177 ft 83 kts 251°
2026-04-21 17:45 51.53373 0.34824 389 ft 80 kts 254°
2026-04-21 17:45 51.53237 0.33955 580 ft 82 kts 257°
2026-04-21 17:45 51.53109 0.33058 761 ft 84 kts 258°
2026-04-21 17:45 51.52960 0.32137 973 ft 87 kts 258°
2026-04-21 17:46 51.52800 0.31118 1115 ft 99 kts 258°
2026-04-21 17:46 51.52665 0.30031 1271 ft 99 kts 270°
2026-04-21 17:46 51.52764 0.29064 1459 ft 78 kts 324°
2026-04-21 17:46 51.53162 0.28506 1542 ft 79 kts 339°
2026-04-21 17:47 51.53590 0.27948 1656 ft 80 kts 332°
2026-04-21 17:47 51.53954 0.27195 1695 ft 95 kts 315°
2026-04-21 17:47 51.54335 0.26252 1681 ft 101 kts 319°
2026-04-21 17:47 51.54764 0.25322 1634 ft 105 kts 321°
2026-04-21 17:48 51.55060 0.24701 1612 ft 105 kts 317°
2026-04-21 17:48 51.55625 0.23375 1569 ft 107 kts 317°
2026-04-21 17:48 51.56077 0.22427 1577 ft 107 kts 318°
2026-04-21 17:48 51.56475 0.21361 1498 ft 113 kts 308°
2026-04-21 17:49 51.56847 0.20275 1452 ft 109 kts 312°
2026-04-21 17:49 51.57283 0.19318 1415 ft 103 kts 320°
2026-04-21 17:49 51.57724 0.18388 1347 ft 105 kts 319°
2026-04-21 17:49 51.58122 0.17631 1329 ft 101 kts 324°
2026-04-21 17:50 51.58618 0.16832 1304 ft 98 kts 331°
2026-04-21 17:50 51.59149 0.16130 1229 ft 101 kts 328°
2026-04-21 17:50 51.59571 0.15231 1222 ft 102 kts 316°
2026-04-21 17:50 51.59921 0.14534 1164 ft 103 kts 322°
2026-04-21 17:51 51.60382 0.13680 1158 ft 102 kts 321°
2026-04-21 17:51 51.60843 0.12852 1197 ft 95 kts 321°
2026-04-21 17:51 51.61249 0.12007 1224 ft 96 kts 317°
2026-04-21 17:51 51.61624 0.11081 1212 ft 98 kts 314°
2026-04-21 17:52 51.62019 0.10197 1225 ft 97 kts 318°
2026-04-21 17:52 51.62393 0.09325 1275 ft 94 kts 315°
2026-04-21 17:52 51.62795 0.08541 1328 ft 89 kts 327°
2026-04-21 17:52 51.63265 0.07836 1293 ft 92 kts 327°
2026-04-21 17:53 51.63707 0.07100 1314 ft 91 kts 326°
2026-04-21 17:53 51.64141 0.06366 1353 ft 90 kts 327°
2026-04-21 17:53 51.64564 0.05580 1337 ft 93 kts 317°
2026-04-21 17:53 51.64966 0.04748 1337 ft 96 kts 321°
2026-04-21 17:54 51.65371 0.03917 1362 ft 95 kts 318°
2026-04-21 17:54 51.65722 0.03007 1361 ft 99 kts 307°
2026-04-21 17:54 51.66009 0.01985 1390 ft 99 kts 302°
2026-04-21 17:54 51.66248 0.00931 1368 ft 102 kts 296°
2026-04-21 17:55 51.66571 -0.00009 1373 ft 94 kts 323°
2026-04-21 17:55 51.66983 -0.00784 1414 ft 88 kts 327°
2026-04-21 17:55 51.67405 -0.01514 1468 ft 86 kts 329°
2026-04-21 17:55 51.67845 -0.02241 1422 ft 93 kts 328°
2026-04-21 17:56 51.68292 -0.02850 1525 ft 80 kts 338°
2026-04-21 17:56 51.68725 -0.03497 1515 ft 88 kts 324°
2026-04-21 17:56 51.69141 -0.04221 1519 ft 88 kts 327°
2026-04-21 17:56 51.69561 -0.04910 1564 ft 85 kts 330°
2026-04-21 17:57 51.70037 -0.05396 1619 ft 75 kts 358°
2026-04-21 17:57 51.70503 -0.05942 1647 ft 92 kts 326°
2026-04-21 17:57 51.70953 -0.06725 1619 ft 98 kts 329°
2026-04-21 17:57 51.71459 -0.07413 1678 ft 93 kts 330°
2026-04-21 17:58 51.71941 -0.08094 1681 ft 95 kts 334°
2026-04-21 17:58 51.72482 -0.08740 1649 ft 93 kts 341°
2026-04-21 17:58 51.73018 -0.09315 1713 ft 89 kts 342°
2026-04-21 17:58 51.73584 -0.09737 1719 ft 88 kts 350°
2026-04-21 17:59 51.74140 -0.10085 1795 ft 82 kts 360°
2026-04-21 17:59 51.74715 -0.10432 1738 ft 96 kts 347°
2026-04-21 17:59 51.75313 -0.10895 1729 ft 95 kts 352°
2026-04-21 17:59 51.75935 -0.11056 1728 ft 87 kts 13°
2026-04-21 18:00 51.76513 -0.10946 1744 ft 82 kts 18°
2026-04-21 18:00 51.77063 -0.10787 1694 ft 83 kts 23°
2026-04-21 18:00 51.77621 -0.10625 1683 ft 79 kts 19°
2026-04-21 18:00 51.78172 -0.10579 1664 ft 77 kts 15°
2026-04-21 18:01 51.78674 -0.10538 1786 ft 68 kts 17°
2026-04-21 18:01 51.79137 -0.10455 1838 ft 65 kts 24°
2026-04-21 18:01 51.79552 -0.10234 1879 ft 61 kts 33°
2026-04-21 18:01 51.79935 -0.09943 1954 ft 62 kts 38°
2026-04-21 18:02 51.80189 -0.09743 2012 ft 61 kts 36°
2026-04-21 18:02 51.80696 -0.09366 2139 ft 60 kts 38°
2026-04-21 18:02 51.81064 -0.09021 2221 ft 60 kts 40°
2026-04-21 18:02 51.81441 -0.08693 2289 ft 62 kts 38°
2026-04-21 18:03 51.81829 -0.08338 2353 ft 66 kts 41°
2026-04-21 18:03 51.82223 -0.07979 2429 ft 69 kts 39°
2026-04-21 18:03 51.82665 -0.07642 2510 ft 71 kts 33°
2026-04-21 18:03 51.83128 -0.07305 2504 ft 76 kts 34°
2026-04-21 18:04 51.83608 -0.06903 2489 ft 76 kts 37°
2026-04-21 18:04 51.84068 -0.06476 2461 ft 77 kts 37°
2026-04-21 18:04 51.84537 -0.06052 2410 ft 77 kts 38°
2026-04-21 18:04 51.84983 -0.05602 2421 ft 76 kts 37°
2026-04-21 18:05 51.85462 -0.05227 2427 ft 77 kts 33°
2026-04-21 18:05 51.85948 -0.04860 2427 ft 77 kts 35°
2026-04-21 18:05 51.86466 -0.04555 2407 ft 81 kts 27°
2026-04-21 18:05 51.87010 -0.04313 2381 ft 80 kts 25°
2026-04-21 18:06 51.87553 -0.04053 2345 ft 81 kts 30°
2026-04-21 18:06 51.88072 -0.03756 2355 ft 77 kts 32°
2026-04-21 18:06 51.88404 -0.03550 2348 ft 79 kts 28°
2026-04-21 18:06 51.88932 -0.03267 2305 ft 80 kts 31°
2026-04-21 18:07 51.89434 -0.02922 2313 ft 79 kts 32°
2026-04-21 18:07 51.90108 -0.02448 2302 ft 79 kts 34°
2026-04-21 18:07 51.90425 -0.02138 2282 ft 79 kts 41°
2026-04-21 18:07 51.91085 -0.01533 2243 ft 81 kts 36°
2026-04-21 18:08 51.91411 -0.01256 2259 ft 78 kts 36°
2026-04-21 18:08 51.91893 -0.00872 2285 ft 77 kts 33°
2026-04-21 18:08 51.92384 -0.00510 2328 ft 76 kts 35°
2026-04-21 18:08 51.92849 -0.00136 2393 ft 73 kts 37°
2026-04-21 18:09 51.93299 0.00238 2436 ft 72 kts 36°
2026-04-21 18:09 51.93752 0.00622 2448 ft 74 kts 38°
2026-04-21 18:09 51.94185 0.01059 2456 ft 74 kts 40°
2026-04-21 18:09 51.94630 0.01472 2499 ft 74 kts 38°
2026-04-21 18:10 51.95079 0.01919 2489 ft 77 kts 41°
2026-04-21 18:10 51.95511 0.02433 2485 ft 76 kts 44°
2026-04-21 18:10 51.95935 0.03023 2395 ft 82 kts 50°
2026-04-21 18:10 51.96335 0.03641 2317 ft 81 kts 42°
2026-04-21 18:11 51.96838 0.04073 2261 ft 81 kts 35°
2026-04-21 18:11 51.97351 0.04458 2211 ft 83 kts 34°
2026-04-21 18:11 51.97856 0.04884 2204 ft 79 kts 40°
2026-04-21 18:11 51.98294 0.05388 2200 ft 76 kts 44°
2026-04-21 18:12 51.98755 0.05847 2199 ft 78 kts 32°
2026-04-21 18:12 51.99300 0.05955 2261 ft 83 kts
2026-04-21 18:12 51.99898 0.05777 2182 ft 92 kts
2026-04-21 18:12 52.00531 0.05585 2130 ft 95 kts 359°
2026-04-21 18:13 52.01188 0.05374 2047 ft 95 kts
2026-04-21 18:13 52.01828 0.05276 2018 ft 91 kts
2026-04-21 18:13 52.02439 0.05270 2030 ft 86 kts 13°
2026-04-21 18:13 52.03010 0.05416 2004 ft 81 kts 27°
2026-04-21 18:14 52.03967 0.06099 1997 ft 73 kts 39°
2026-04-21 18:14 52.04365 0.06618 1950 ft 73 kts 49°
2026-04-21 18:14 52.04768 0.07122 1921 ft 74 kts 40°
2026-04-21 18:15 52.05224 0.07543 1861 ft 76 kts 35°
2026-04-21 18:15 52.05684 0.07974 1777 ft 80 kts 41°
2026-04-21 18:15 52.06115 0.08542 1675 ft 82 kts 53°
2026-04-21 18:15 52.06481 0.09243 1543 ft 82 kts 56°
2026-04-21 18:16 52.06787 0.09988 1449 ft 75 kts 62°
2026-04-21 18:16 52.07022 0.10673 1496 ft 65 kts 64°
2026-04-21 18:16 52.07245 0.11327 1440 ft 70 kts 63°
2026-04-21 18:16 52.07492 0.12014 1411 ft 69 kts 64°
2026-04-21 18:17 52.07721 0.12668 1436 ft 67 kts 64°
2026-04-21 18:21 52.07827 0.12948 1433 ft 67 kts 64°
2026-04-21 18:21 52.08064 0.13595 1414 ft 68 kts 64°
2026-04-21 18:21 52.08340 0.14258 1272 ft 74 kts 60°
2026-04-21 18:21 52.08720 0.14803 1179 ft 75 kts 30°
2026-04-21 18:22 52.09269 0.14735 1136 ft 87 kts 353°
2026-04-21 18:22 52.09763 0.14070 1075 ft 103 kts 309°
2026-04-21 18:22 52.09881 0.12890 1103 ft 107 kts 263°
2026-04-21 18:22 52.09649 0.11797 1069 ft 105 kts 245°
2026-04-21 18:23 52.09272 0.10791 1016 ft 102 kts 232°
2026-04-21 18:23 52.08866 0.09869 890 ft 93 kts 233°
2026-04-21 18:23 52.08544 0.08965 660 ft 92 kts 241°
2026-04-21 18:23 52.08260 0.08051 430 ft 85 kts 247°
2026-04-21 18:24 52.08042 0.07198 256 ft 83 kts 248°
2026-04-21 18:24 52.07807 0.06376 129 ft 76 kts 246°
2026-04-21 18:24 52.07648 0.05822 122 ft 24 kts 248°
2026-04-21 18:24 52.07654 0.05757 120 ft 3 kts 47°
2026-04-21 18:25 52.07666 0.05790 122 ft 10 kts 67°
2026-04-21 18:25 52.07715 0.05846 125 ft 9 kts 355°
2026-04-21 18:25 52.07794 0.05828 125 ft 14 kts 351°
2026-04-21 18:25 52.07907 0.05797 125 ft 18 kts 346°
2026-04-21 18:26 52.08042 0.05751 125 ft 21 kts 351°
2026-04-21 18:26 52.08127 0.05735 125 ft 12 kts
2026-04-21 18:26 52.08183 0.05761 125 ft 6 kts 21°
2026-04-21 18:27 52.08200 0.05770 123 ft 0 kts 15°